createdAt,value
2019-04-10T00:01:53.080Z,12.10
2019-04-10T00:04:25.261Z,12.00
2019-04-10T00:07:10.427Z,12.00
2019-04-10T00:09:30.799Z,12.00
2019-04-10T00:12:02.977Z,12.00
2019-04-10T00:14:34.792Z,12.10
2019-04-10T00:17:06.920Z,11.90
2019-04-10T00:19:40.035Z,12.00
2019-04-10T00:22:12.066Z,12.00
2019-04-10T00:24:44.208Z,11.90
2019-04-10T00:27:16.722Z,12.00
2019-04-10T00:29:48.795Z,11.90
2019-04-10T00:32:21.650Z,12.00
2019-04-10T00:34:54.042Z,12.00
2019-04-10T00:37:29.569Z,11.80
2019-04-10T00:39:59.439Z,11.70
2019-04-10T00:42:32.776Z,11.60
2019-04-10T00:45:04.991Z,11.50
2019-04-10T00:47:37.445Z,11.50
2019-04-10T00:50:09.224Z,11.50
2019-04-10T00:52:41.082Z,11.50
2019-04-10T00:55:16.192Z,11.50
2019-04-10T00:57:48.056Z,11.50
2019-04-10T01:00:20.851Z,11.40
2019-04-10T01:02:53.946Z,11.30
2019-04-10T01:05:25.778Z,11.40
2019-04-10T01:07:57.823Z,11.30
2019-04-10T01:10:30.423Z,11.40
2019-04-10T01:13:02.749Z,11.30
2019-04-10T01:15:34.645Z,11.20
2019-04-10T01:18:06.788Z,11.30
2019-04-10T01:20:39.755Z,11.30
2019-04-10T01:23:11.984Z,11.30
2019-04-10T01:25:43.751Z,11.20
2019-04-10T01:28:16.358Z,11.20
2019-04-10T01:30:48.648Z,11.20
2019-04-10T01:33:20.728Z,11.10
2019-04-10T01:35:52.844Z,11.20
2019-04-10T01:38:25.163Z,11.10
2019-04-10T01:40:57.017Z,11.10
2019-04-10T01:43:28.928Z,11.00
2019-04-10T01:46:02.140Z,10.90
2019-04-10T01:48:34.514Z,11.10
2019-04-10T01:51:06.700Z,11.10
2019-04-10T01:53:38.781Z,11.00
2019-04-10T01:56:22.047Z,11.10
2019-04-10T01:58:47.696Z,11.20
2019-04-10T02:01:24.190Z,10.90
2019-04-10T02:03:56.014Z,10.70
2019-04-10T02:06:27.838Z,10.80
2019-04-10T02:09:00.427Z,10.90
2019-04-10T02:11:32.346Z,10.90
2019-04-10T02:14:04.215Z,10.70
2019-04-10T02:16:36.071Z,10.80
2019-04-10T02:19:08.217Z,11.00
2019-04-10T02:21:40.155Z,10.60
2019-04-10T02:24:12.001Z,10.80
2019-04-10T02:26:43.825Z,10.80
2019-04-10T02:29:15.688Z,11.10
2019-04-10T02:31:48.473Z,10.70
2019-04-10T02:34:21.367Z,10.90
2019-04-10T02:36:55.298Z,10.60
2019-04-10T02:39:36.122Z,10.50
2019-04-10T02:42:02.643Z,10.50
2019-04-10T02:44:35.537Z,10.60
2019-04-10T02:47:07.476Z,10.50
2019-04-10T02:49:40.370Z,10.50
2019-04-10T02:52:13.040Z,10.40
2019-04-10T02:54:46.327Z,10.60
2019-04-10T02:57:19.456Z,10.30
2019-04-10T02:59:51.675Z,10.40
2019-04-10T03:02:24.312Z,10.30
2019-04-10T03:04:57.326Z,10.50
2019-04-10T03:07:29.350Z,10.60
2019-04-10T03:10:12.888Z,10.50
2019-04-10T03:12:36.341Z,10.40
2019-04-10T03:15:10.527Z,10.50
2019-04-10T03:17:42.436Z,10.50
2019-04-10T03:20:14.633Z,10.50
2019-04-10T03:22:47.215Z,10.60
2019-04-10T03:25:19.463Z,10.50
2019-04-10T03:27:52.540Z,10.40
2019-04-10T03:30:24.738Z,10.40
2019-04-10T03:33:05.811Z,10.60
2019-04-10T03:36:00.396Z,10.70
2019-04-10T03:38:32.243Z,10.50
2019-04-10T03:41:04.364Z,10.40
2019-04-10T03:43:36.492Z,10.50
2019-04-10T03:46:09.312Z,10.50
2019-04-10T03:48:41.194Z,10.60
2019-04-10T03:51:13.024Z,10.70
2019-04-10T03:53:45.176Z,10.40
2019-04-10T03:56:17.969Z,10.50
2019-04-10T03:58:50.056Z,10.30
2019-04-10T04:01:22.893Z,10.40
2019-04-10T04:03:55.241Z,10.40
2019-04-10T04:06:27.888Z,10.50
2019-04-10T04:09:07.308Z,10.50
2019-04-10T04:11:34.173Z,10.60
2019-04-10T04:14:06.243Z,10.40
2019-04-10T04:16:38.056Z,10.60
2019-04-10T04:19:10.417Z,10.50
2019-04-10T04:21:42.243Z,10.40
2019-04-10T04:24:15.576Z,10.40
2019-04-10T04:26:48.582Z,10.40
2019-04-10T04:29:20.719Z,10.50
2019-04-10T04:31:52.720Z,10.40
2019-04-10T04:34:25.051Z,10.50
2019-04-10T04:36:56.842Z,10.60
2019-04-10T04:39:30.026Z,10.40
2019-04-10T04:42:03.040Z,10.40
2019-04-10T04:44:35.475Z,10.30
2019-04-10T04:47:07.785Z,10.30
2019-04-10T04:49:39.843Z,10.30
2019-04-10T04:52:13.240Z,10.40
2019-04-10T04:54:45.671Z,10.30
2019-04-10T04:57:17.450Z,10.40
2019-04-10T04:59:49.302Z,10.40
2019-04-10T05:02:22.095Z,10.30
2019-04-10T05:04:53.984Z,10.40
2019-04-10T05:07:25.960Z,10.30
2019-04-10T05:10:00.225Z,10.50
2019-04-10T05:12:31.866Z,10.10
2019-04-10T05:15:04.483Z,10.40
2019-04-10T05:17:37.187Z,10.60
2019-04-10T05:20:09.412Z,10.20
2019-04-10T05:22:41.657Z,10.50
2019-04-10T05:25:13.601Z,10.40
2019-04-10T05:27:45.420Z,10.20
2019-04-10T05:30:18.410Z,10.20
2019-04-10T05:32:51.253Z,10.10
2019-04-10T05:35:23.906Z,10.30
2019-04-10T05:37:56.113Z,10.30
2019-04-10T05:40:28.112Z,10.40
2019-04-10T05:43:00.020Z,10.20
2019-04-10T05:45:31.902Z,10.40
2019-04-10T05:48:03.720Z,10.50
2019-04-10T05:50:35.699Z,10.60
2019-04-10T05:53:07.793Z,10.40
2019-04-10T05:55:40.676Z,10.50
2019-04-10T05:58:13.390Z,10.60
2019-04-10T06:00:45.307Z,10.70
2019-04-10T06:03:17.129Z,10.80
2019-04-10T06:05:50.789Z,10.80
2019-04-10T06:08:23.700Z,10.80
2019-04-10T06:10:56.121Z,11.00
2019-04-10T06:13:27.958Z,10.80
2019-04-10T06:15:59.955Z,11.00
2019-04-10T06:18:33.265Z,11.00
2019-04-10T06:21:06.967Z,10.70
2019-04-10T06:23:39.326Z,10.90
2019-04-10T06:26:12.627Z,11.10
2019-04-10T06:28:44.594Z,11.00
2019-04-10T06:31:16.730Z,11.00
2019-04-10T06:33:50.573Z,11.10
2019-04-10T06:36:22.518Z,11.10
2019-04-10T06:38:55.110Z,11.10
2019-04-10T06:41:27.460Z,11.00
2019-04-10T06:43:59.444Z,10.70
2019-04-10T06:46:32.617Z,11.00
2019-04-10T06:49:05.559Z,11.20
2019-04-10T06:51:38.073Z,11.30
2019-04-10T06:54:11.775Z,11.30
2019-04-10T06:56:43.843Z,11.30
2019-04-10T06:59:16.299Z,11.40
2019-04-10T07:01:52.857Z,11.50
2019-04-10T07:04:24.436Z,11.50
2019-04-10T07:07:01.821Z,11.60
2019-04-10T07:09:29.747Z,11.70
2019-04-10T07:12:03.404Z,11.90
2019-04-10T07:14:37.931Z,12.10
2019-04-10T07:17:10.673Z,12.00
2019-04-10T07:19:45.307Z,12.20
2019-04-10T07:22:17.498Z,12.40
2019-04-10T07:24:51.849Z,12.50
2019-04-10T07:27:23.729Z,12.30
2019-04-10T07:29:59.177Z,12.40
2019-04-10T07:32:29.861Z,12.40
2019-04-10T07:35:03.029Z,12.50
2019-04-10T07:37:36.202Z,12.90
2019-04-10T07:40:08.528Z,12.80
2019-04-10T07:42:42.985Z,12.80
2019-04-10T07:45:14.643Z,13.10
2019-04-10T07:47:46.784Z,12.90
2019-04-10T07:50:18.899Z,12.90
2019-04-10T07:52:52.009Z,12.70
2019-04-10T07:55:25.270Z,13.20
2019-04-10T07:57:57.298Z,13.50
2019-04-10T08:00:29.122Z,13.50
2019-04-10T08:03:01.308Z,13.80
2019-04-10T08:05:33.583Z,13.80
2019-04-10T08:08:05.382Z,13.90
2019-04-10T08:10:38.012Z,14.40
2019-04-10T08:13:09.903Z,14.20
2019-04-10T08:15:41.742Z,14.20
2019-04-10T08:18:14.594Z,14.10
2019-04-10T08:20:46.712Z,14.50
2019-04-10T08:23:19.743Z,14.50
2019-04-10T08:25:51.692Z,14.70
2019-04-10T08:28:24.112Z,14.80
2019-04-10T08:30:57.386Z,15.00
2019-04-10T08:33:30.192Z,15.20
2019-04-10T08:36:03.025Z,15.40
2019-04-10T08:38:35.101Z,15.90
2019-04-10T08:41:06.972Z,15.60
2019-04-10T08:43:39.670Z,15.80
2019-04-10T08:46:12.800Z,15.70
2019-04-10T08:48:44.749Z,16.20
2019-04-10T08:51:17.092Z,16.20
2019-04-10T08:53:48.920Z,16.40
2019-04-10T08:56:20.799Z,16.70
2019-04-10T08:58:52.711Z,16.40
2019-04-10T09:01:25.117Z,16.30
2019-04-10T09:03:57.391Z,16.30
2019-04-10T09:06:29.446Z,16.80
2019-04-10T09:09:01.573Z,16.60
2019-04-10T09:11:34.026Z,17.10
2019-04-10T09:14:05.923Z,17.10
2019-04-10T09:16:38.554Z,17.40
2019-04-10T09:19:10.462Z,17.30
2019-04-10T09:21:42.273Z,17.50
2019-04-10T09:24:15.286Z,17.60
2019-04-10T09:26:48.622Z,17.60
2019-04-10T09:29:23.215Z,17.60
2019-04-10T09:31:54.101Z,17.50
2019-04-10T09:34:25.961Z,17.50
2019-04-10T09:36:58.065Z,17.70
2019-04-10T09:39:29.920Z,17.80
2019-04-10T09:42:03.395Z,17.80
2019-04-10T09:44:35.933Z,17.80
2019-04-10T09:47:07.819Z,17.80
2019-04-10T09:49:45.837Z,18.20
2019-04-10T09:52:14.570Z,17.90
2019-04-10T09:54:46.719Z,17.80
2019-04-10T09:57:18.645Z,17.30
2019-04-10T09:59:50.495Z,17.70
2019-04-10T10:02:23.212Z,18.20
2019-04-10T10:04:55.656Z,18.60
2019-04-10T10:07:28.443Z,19.00
2019-04-10T10:10:01.281Z,19.00
2019-04-10T10:12:34.357Z,19.10
2019-04-10T10:15:07.877Z,18.70
2019-04-10T10:17:39.673Z,18.70
2019-04-10T10:20:12.045Z,18.40
2019-04-10T10:22:43.855Z,18.50
2019-04-10T10:25:15.831Z,18.20
2019-04-10T10:27:48.834Z,18.10
2019-04-10T10:30:20.943Z,18.10
2019-04-10T10:32:53.161Z,18.00
2019-04-10T10:35:25.351Z,17.90
2019-04-10T10:37:57.161Z,17.80
2019-04-10T10:40:29.818Z,17.90
2019-04-10T10:43:02.423Z,17.40
2019-04-10T10:45:34.702Z,17.60
2019-04-10T10:48:08.683Z,17.50
2019-04-10T10:50:41.502Z,17.40
2019-04-10T10:53:14.333Z,17.30
2019-04-10T10:55:46.196Z,17.20
2019-04-10T10:58:17.998Z,17.20
2019-04-10T11:00:51.635Z,17.20
2019-04-10T11:03:24.486Z,17.00
2019-04-10T11:05:56.684Z,16.90
2019-04-10T11:08:29.438Z,16.80
2019-04-10T11:11:01.472Z,16.70
2019-04-10T11:13:34.689Z,17.20
2019-04-10T11:16:07.565Z,16.90
2019-04-10T11:18:40.405Z,16.80
2019-04-10T11:21:12.807Z,16.40
2019-04-10T11:23:44.717Z,16.90
2019-04-10T11:26:20.532Z,16.80
2019-04-10T11:28:50.551Z,16.60
2019-04-10T11:31:23.769Z,17.20
2019-04-10T11:33:56.906Z,17.10
2019-04-10T11:36:30.022Z,17.40
2019-04-10T11:39:13.853Z,17.50
2019-04-10T11:41:37.311Z,17.80
2019-04-10T11:44:11.419Z,18.10
2019-04-10T11:46:43.918Z,18.00
2019-04-10T11:49:17.821Z,18.20
2019-04-10T11:51:52.720Z,18.70
2019-04-10T11:54:26.930Z,18.70
2019-04-10T11:56:58.690Z,18.80
2019-04-10T11:59:34.060Z,18.90
2019-04-10T12:02:06.459Z,19.00
2019-04-10T12:04:48.073Z,19.30
2019-04-10T12:07:49.137Z,18.80
2019-04-10T12:12:20.284Z,19.80
2019-04-10T12:14:52.606Z,20.00
2019-04-10T12:17:25.609Z,19.90
2019-04-10T12:19:58.554Z,19.90
2019-04-10T12:22:31.750Z,19.40
2019-04-10T12:25:04.732Z,20.00
2019-04-10T12:27:36.964Z,19.90
2019-04-10T12:30:11.124Z,19.70
2019-04-10T12:32:43.125Z,19.30
2019-04-10T12:35:15.182Z,19.60
2019-04-10T12:37:57.351Z,19.90
2019-04-10T12:40:21.537Z,19.60
2019-04-10T12:42:54.615Z,19.70
2019-04-10T12:45:26.990Z,19.20
2019-04-10T12:48:02.178Z,18.80
2019-04-10T12:50:33.943Z,18.70
2019-04-10T12:53:05.801Z,19.30
2019-04-10T12:55:38.831Z,18.90
2019-04-10T12:58:15.592Z,18.50
2019-04-10T13:00:44.658Z,18.60
2019-04-10T13:03:16.818Z,18.10
2019-04-10T13:05:49.355Z,17.70
2019-04-10T13:08:26.011Z,17.40
2019-04-10T13:10:56.351Z,17.40
2019-04-10T13:13:28.609Z,17.10
2019-04-10T13:16:01.509Z,16.90
2019-04-10T13:18:34.371Z,16.80
2019-04-10T13:21:06.381Z,16.60
2019-04-10T13:23:39.664Z,16.60
2019-04-10T13:26:11.546Z,16.40
2019-04-10T13:28:43.537Z,16.70
2019-04-10T13:31:15.329Z,17.00
2019-04-10T13:33:47.127Z,16.80
2019-04-10T13:36:19.676Z,17.00
2019-04-10T13:38:52.606Z,16.90
2019-04-10T13:41:24.873Z,16.80
2019-04-10T13:43:56.846Z,16.30
2019-04-10T13:46:28.969Z,16.90
2019-04-10T13:49:01.948Z,16.90
2019-04-10T13:51:33.889Z,16.70
2019-04-10T13:54:06.242Z,16.50
2019-04-10T13:56:39.274Z,16.70
2019-04-10T13:59:11.100Z,16.70
2019-04-10T14:01:43.945Z,16.40
2019-04-10T14:04:16.731Z,16.30
2019-04-10T14:06:49.372Z,16.40
2019-04-10T14:09:34.811Z,16.00
2019-04-10T14:11:55.089Z,16.00
2019-04-10T14:14:26.997Z,15.90
2019-04-10T14:16:59.357Z,15.90
2019-04-10T14:19:32.216Z,15.80
2019-04-10T14:22:05.173Z,15.60
2019-04-10T14:24:42.803Z,15.70
2019-04-10T14:27:16.639Z,16.00
2019-04-10T14:29:49.101Z,15.90
2019-04-10T14:32:29.244Z,15.90
2019-04-10T14:35:01.673Z,15.60
2019-04-10T14:37:33.635Z,16.00
2019-04-10T14:40:08.319Z,15.50
2019-04-10T14:42:40.423Z,16.00
2019-04-10T14:45:13.143Z,15.90
2019-04-10T14:47:45.142Z,15.80
2019-04-10T14:50:17.801Z,15.90
2019-04-10T14:52:49.717Z,16.00
2019-04-10T14:55:21.994Z,16.20
2019-04-10T14:57:54.903Z,16.10
2019-04-10T15:00:33.139Z,16.20
2019-04-10T15:03:04.979Z,16.10
2019-04-10T15:05:45.600Z,16.00
2019-04-10T15:08:11.306Z,16.20
2019-04-10T15:10:43.926Z,16.30
2019-04-10T15:13:19.581Z,16.30
2019-04-10T15:15:50.300Z,16.10
2019-04-10T15:18:22.553Z,15.80
2019-04-10T15:20:54.470Z,15.70
2019-04-10T15:23:27.503Z,15.50
2019-04-10T15:25:59.712Z,16.10
2019-04-10T15:28:31.857Z,15.80
2019-04-10T15:31:03.962Z,15.80
2019-04-10T15:33:35.780Z,16.00
2019-04-10T15:36:08.009Z,16.10
2019-04-10T15:38:39.857Z,16.10
2019-04-10T15:41:11.960Z,16.00
2019-04-10T15:43:44.246Z,15.80
2019-04-10T15:46:17.073Z,16.00
2019-04-10T15:48:49.405Z,15.60
2019-04-10T15:51:22.360Z,15.60
2019-04-10T15:53:54.685Z,15.70
2019-04-10T15:56:27.577Z,15.40
2019-04-10T15:58:59.732Z,15.40
2019-04-10T16:01:31.514Z,15.50
2019-04-10T16:04:03.464Z,15.50
2019-04-10T16:06:35.669Z,15.40
2019-04-10T16:09:09.495Z,15.20
2019-04-10T16:11:47.727Z,15.00
2019-04-10T16:14:23.240Z,15.20
2019-04-10T16:17:19.319Z,15.00
2019-04-10T16:20:09.342Z,15.20
2019-04-10T16:22:54.534Z,14.60
2019-04-10T16:25:30.193Z,14.90
2019-04-10T16:28:04.136Z,14.80
2019-04-10T16:30:37.068Z,14.40
2019-04-10T16:33:09.128Z,14.70
2019-04-10T16:35:40.924Z,14.70
2019-04-10T16:38:14.169Z,14.50
2019-04-10T16:46:03.345Z,14.70
2019-04-10T16:48:35.833Z,14.80
2019-04-10T16:51:08.079Z,14.30
2019-04-10T16:53:39.916Z,14.50
2019-04-10T16:56:15.691Z,14.20
2019-04-10T16:58:52.081Z,14.30
2019-04-10T17:01:24.296Z,14.20
2019-04-10T17:03:56.094Z,14.30
2019-04-10T17:06:28.281Z,14.20
2019-04-10T17:09:00.646Z,14.30
2019-04-10T17:11:33.403Z,14.20
2019-04-10T17:14:06.724Z,13.30
2019-04-10T17:16:39.879Z,13.50
2019-04-10T17:19:11.861Z,13.60
2019-04-10T17:21:44.572Z,13.40
2019-04-10T17:24:17.436Z,13.60
2019-04-10T17:26:49.362Z,13.60
2019-04-10T17:29:22.975Z,13.60
2019-04-10T17:31:55.089Z,13.60
2019-04-10T17:34:27.094Z,13.60
2019-04-10T17:36:59.280Z,13.70
2019-04-10T17:39:31.405Z,13.50
2019-04-10T17:42:04.054Z,13.60
2019-04-10T17:44:36.220Z,13.60
2019-04-10T17:47:09.899Z,13.80
2019-04-10T17:49:41.609Z,13.70
2019-04-10T17:52:14.447Z,13.40
2019-04-10T17:54:47.092Z,13.40
2019-04-10T17:57:19.064Z,13.30
2019-04-10T17:59:51.172Z,13.30
2019-04-10T18:02:23.517Z,13.30
2019-04-10T18:04:56.020Z,13.30
2019-04-10T18:07:28.155Z,13.20
2019-04-10T18:10:00.233Z,13.30
2019-04-10T18:12:32.242Z,13.10
2019-04-10T18:15:04.101Z,13.20
2019-04-10T18:17:36.348Z,13.00
2019-04-10T18:20:08.489Z,13.00
2019-04-10T18:22:40.305Z,13.00
2019-04-10T18:25:12.223Z,12.80
2019-04-10T18:27:44.878Z,13.20
2019-04-10T18:30:16.932Z,13.30
2019-04-10T18:32:49.866Z,13.00
2019-04-10T18:35:22.566Z,12.90
2019-04-10T18:37:55.123Z,13.10
2019-04-10T18:40:27.301Z,12.80
2019-04-10T18:43:00.737Z,12.80
2019-04-10T18:45:33.633Z,12.80
2019-04-10T18:48:06.323Z,13.00
2019-04-10T18:50:38.446Z,12.90
2019-04-10T18:53:10.997Z,13.20
2019-04-10T18:55:42.990Z,13.00
2019-04-10T18:58:17.413Z,13.00
2019-04-10T19:01:13.160Z,13.00
2019-04-10T19:04:04.312Z,12.90
2019-04-10T19:06:42.913Z,13.00
2019-04-10T19:09:24.410Z,12.80
2019-04-10T19:11:51.004Z,12.90
2019-04-10T19:14:23.139Z,12.40
2019-04-10T19:16:55.263Z,12.50
2019-04-10T19:19:28.201Z,12.70
2019-04-10T19:22:00.160Z,12.50
2019-04-10T19:24:32.589Z,12.60
2019-04-10T19:27:04.414Z,12.70
2019-04-10T19:29:36.547Z,12.40
2019-04-10T19:32:12.089Z,12.50
2019-04-10T19:34:44.284Z,12.50
2019-04-10T19:37:18.401Z,12.70
2019-04-10T19:39:50.865Z,12.50
2019-04-10T19:42:25.032Z,12.60
2019-04-10T19:44:57.328Z,12.70
2019-04-10T19:47:30.405Z,12.50
2019-04-10T19:50:03.493Z,12.40
2019-04-10T19:52:36.187Z,12.40
2019-04-10T19:55:08.217Z,12.50
2019-04-10T19:57:40.141Z,12.20
2019-04-10T20:00:12.498Z,12.40
2019-04-10T20:02:44.505Z,12.30
2019-04-10T20:05:16.993Z,12.30
2019-04-10T20:07:49.285Z,12.20
2019-04-10T20:10:21.393Z,12.10
2019-04-10T20:12:53.261Z,12.10
2019-04-10T20:15:25.147Z,11.90
2019-04-10T20:17:57.290Z,12.20
2019-04-10T20:20:29.123Z,12.20
2019-04-10T20:23:00.987Z,11.60
2019-04-10T20:25:32.943Z,11.50
2019-04-10T20:28:04.821Z,11.70
2019-04-10T20:30:37.046Z,11.70
2019-04-10T20:33:10.398Z,11.90
2019-04-10T20:35:42.594Z,11.90
2019-04-10T20:38:15.446Z,11.40
2019-04-10T20:40:47.403Z,11.60
2019-04-10T20:43:20.563Z,11.50
2019-04-10T20:45:53.715Z,11.10
2019-04-10T20:48:26.525Z,11.50
2019-04-10T20:50:58.778Z,11.40
2019-04-10T20:53:31.714Z,11.30
2019-04-10T20:56:03.573Z,11.30
2019-04-10T20:58:36.228Z,11.40
2019-04-10T21:01:08.346Z,11.20
2019-04-10T21:03:42.495Z,11.30
2019-04-10T21:06:15.610Z,11.40
2019-04-10T21:08:48.063Z,11.30
2019-04-10T21:11:20.662Z,11.30
2019-04-10T21:13:54.509Z,11.00
2019-04-10T21:16:27.357Z,11.00
2019-04-10T21:19:00.253Z,10.90
2019-04-10T21:21:32.915Z,11.10
2019-04-10T21:24:04.960Z,11.00
2019-04-10T21:26:36.787Z,11.10
2019-04-10T21:29:12.785Z,11.00
2019-04-10T21:32:01.707Z,11.00
2019-04-10T21:34:39.362Z,11.00
2019-04-10T21:37:11.195Z,10.60
2019-04-10T21:39:43.784Z,10.80
2019-04-10T21:42:21.618Z,10.60
2019-04-10T21:44:51.300Z,10.50
2019-04-10T21:47:23.656Z,10.60
2019-04-10T21:49:56.874Z,10.70
2019-04-10T21:52:28.803Z,10.60
2019-04-10T21:55:02.476Z,10.50
2019-04-10T21:57:34.888Z,10.40
2019-04-10T22:00:08.026Z,10.30
2019-04-10T22:02:40.114Z,10.30
2019-04-10T22:05:12.507Z,10.10
2019-04-10T22:07:59.186Z,10.00
2019-04-10T22:10:36.261Z,9.90
2019-04-10T22:13:08.441Z,9.90
2019-04-10T22:15:42.028Z,10.00
2019-04-10T22:18:14.870Z,9.60
2019-04-10T22:20:48.005Z,9.70
2019-04-10T22:23:20.526Z,9.70
2019-04-10T22:25:52.499Z,9.50
2019-04-10T22:28:25.367Z,9.50
2019-04-10T22:30:58.087Z,9.50
2019-04-10T22:33:30.254Z,9.50
2019-04-10T22:36:02.354Z,9.30
2019-04-10T22:38:34.163Z,9.40
2019-04-10T22:41:19.533Z,9.40
2019-04-10T22:43:40.750Z,9.60
2019-04-10T22:46:13.102Z,9.40
2019-04-10T22:48:45.740Z,9.20
2019-04-10T22:51:17.656Z,9.20
2019-04-10T22:53:50.036Z,9.30
2019-04-10T22:56:23.178Z,9.10
2019-04-10T22:58:55.308Z,9.30
2019-04-10T23:01:27.225Z,9.20
2019-04-10T23:03:59.255Z,9.10
2019-04-10T23:06:31.450Z,9.10
2019-04-10T23:09:04.166Z,9.20
2019-04-10T23:11:41.868Z,9.10
2019-04-10T23:14:10.241Z,9.00
2019-04-10T23:16:42.188Z,8.90
2019-04-10T23:19:14.102Z,9.00
2019-04-10T23:21:47.046Z,9.10
2019-04-10T23:24:19.116Z,8.90
2019-04-10T23:26:51.306Z,8.80
2019-04-10T23:29:24.217Z,8.80
2019-04-10T23:31:56.583Z,8.90
2019-04-10T23:34:28.568Z,8.70
2019-04-10T23:37:00.406Z,8.70
2019-04-10T23:39:32.417Z,8.60
2019-04-10T23:42:04.887Z,8.30
2019-04-10T23:44:37.725Z,8.20
2019-04-10T23:47:09.659Z,8.40
2019-04-10T23:49:41.693Z,8.60
2019-04-10T23:52:13.796Z,8.60
2019-04-10T23:54:45.902Z,8.60
2019-04-10T23:57:18.910Z,8.70
2019-04-10T23:59:51.042Z,8.40
